Valley View, Illinois
Current Conditions -  °F | °C
As of 8:52 PM on Sunday 21 Dec 2014 (Local Time) from KDPA Reporting Station
Clear Clear  
Wind Chill: 27°   Ceiling: Unl
Heat Index: 34°   Visibility: 8mi
Dew Point: 29°   Wind: 8mph
Humidity: 82%   Direction: 150°SSE
Pressure: 30.02"   Gusts: NA
Location:  41.9372°N, 88.2876°W
Report Text: KDPA 220252Z 15007KT 8SM CLR 01/M02 A3002 RMK AO2 SLP175 T00111017 58014
Loading
Personal Weather Stations






























Interactive Weather Map New forecast layout! Learn more

10-Day Weather Forecast

Advertisements
Track Severe Weather on mobile